createdAt,value
2023-04-15T00:02:53.182Z,44.90
2023-04-15T00:06:14.846Z,44.97
2023-04-15T00:09:38.104Z,43.93
2023-04-15T00:12:59.714Z,45.40
2023-04-15T00:16:21.407Z,50.00
2023-04-15T00:19:44.339Z,46.67
2023-04-15T00:23:07.702Z,48.00
2023-04-15T00:26:30.688Z,46.90
2023-04-15T00:29:52.734Z,44.27
2023-04-15T00:33:14.612Z,45.03
2023-04-15T00:36:36.658Z,43.57
2023-04-15T00:39:58.870Z,45.33
2023-04-15T00:43:21.815Z,45.07
2023-04-15T00:46:45.477Z,44.90
2023-04-15T00:50:08.565Z,42.17
2023-04-15T00:53:30.618Z,44.67
2023-04-15T00:56:52.208Z,40.20
2023-04-15T01:00:16.737Z,37.83
2023-04-15T01:03:38.884Z,40.27
2023-04-15T01:07:00.494Z,41.43
2023-04-15T01:10:22.542Z,40.07
2023-04-15T01:13:44.542Z,40.43
2023-04-15T01:17:08.017Z,40.83
2023-04-15T01:20:30.598Z,39.77
2023-04-15T01:23:54.730Z,37.00
2023-04-15T01:27:18.246Z,39.33
2023-04-15T01:30:39.907Z,39.50
2023-04-15T01:34:02.380Z,37.40
2023-04-15T01:37:24.270Z,37.70
2023-04-15T01:40:46.093Z,36.50
2023-04-15T01:44:09.623Z,37.80
2023-04-15T01:47:31.503Z,36.23
2023-04-15T01:50:54.587Z,36.40
2023-04-15T01:54:16.315Z,36.30
2023-04-15T01:57:38.390Z,36.80
2023-04-15T02:01:04.042Z,37.80
2023-04-15T02:04:27.958Z,38.03
2023-04-15T02:07:50.277Z,35.70
2023-04-15T02:11:12.055Z,36.37
2023-04-15T02:14:33.994Z,33.63
2023-04-15T02:17:57.896Z,33.23
2023-04-15T02:21:19.689Z,35.00
2023-04-15T02:24:41.173Z,34.70
2023-04-15T02:28:06.236Z,36.80
2023-04-15T02:31:28.572Z,33.17
2023-04-15T02:34:51.763Z,32.87
2023-04-15T02:38:14.323Z,35.83
2023-04-15T02:41:36.706Z,31.93
2023-04-15T02:44:59.420Z,33.90
2023-04-15T02:48:26.194Z,32.10
2023-04-15T02:51:49.682Z,32.97
2023-04-15T02:55:11.096Z,31.17
2023-04-15T02:58:32.788Z,30.93
2023-04-15T03:01:55.495Z,30.70
2023-04-15T03:05:17.426Z,32.23
2023-04-15T03:08:45.786Z,36.67
2023-04-15T03:12:08.169Z,34.93
2023-04-15T03:15:29.770Z,31.60
2023-04-15T03:18:51.818Z,30.03
2023-04-15T03:22:15.547Z,31.60
2023-04-15T03:25:38.719Z,32.77
2023-04-15T03:29:02.097Z,29.03
2023-04-15T03:32:24.117Z,26.48
2023-04-15T03:35:45.784Z,28.57
2023-04-15T03:39:08.077Z,31.07
2023-04-15T03:42:31.091Z,26.00
2023-04-15T03:45:52.839Z,25.38
2023-04-15T03:49:15.458Z,26.27
2023-04-15T03:52:37.552Z,27.67
2023-04-15T03:55:59.651Z,26.50
2023-04-15T03:59:22.792Z,25.83
2023-04-15T04:02:46.084Z,26.03
2023-04-15T04:06:08.108Z,27.45
2023-04-15T04:09:29.926Z,24.70
2023-04-15T04:12:51.204Z,23.97
2023-04-15T04:16:14.469Z,24.60
2023-04-15T04:19:35.781Z,26.63
2023-04-15T04:22:57.593Z,22.42
2023-04-15T04:26:19.843Z,25.83
2023-04-15T04:29:41.474Z,24.30
2023-04-15T04:33:05.351Z,21.47
2023-04-15T04:36:27.834Z,21.75
2023-04-15T04:39:49.478Z,22.30
2023-04-15T04:43:11.348Z,21.03
2023-04-15T04:46:33.639Z,21.77
2023-04-15T04:49:56.498Z,21.00
2023-04-15T04:53:18.319Z,17.93
2023-04-15T04:56:39.954Z,19.52
2023-04-15T05:00:01.962Z,19.05
2023-04-15T05:03:23.825Z,18.65
2023-04-15T05:06:47.295Z,18.77
2023-04-15T05:10:10.463Z,17.60
2023-04-15T05:13:32.017Z,19.10
2023-04-15T05:16:53.717Z,18.47
2023-04-15T05:20:15.819Z,17.23
2023-04-15T05:23:38.741Z,17.88
2023-04-15T05:27:01.344Z,15.20
2023-04-15T05:30:23.443Z,15.38
2023-04-15T05:33:45.620Z,14.57
2023-04-15T05:37:07.938Z,17.85
2023-04-15T05:40:31.625Z,17.52
2023-04-15T05:43:53.166Z,17.35
2023-04-15T05:47:15.171Z,16.92
2023-04-15T05:50:36.945Z,15.05
2023-04-15T05:53:58.593Z,15.05
2023-04-15T05:57:22.369Z,17.50
2023-04-15T06:00:43.858Z,15.05
2023-04-15T06:04:05.355Z,15.73
2023-04-15T06:07:27.502Z,17.60
2023-04-15T06:10:48.899Z,16.58
2023-04-15T06:14:12.017Z,15.10
2023-04-15T06:17:33.491Z,15.02
2023-04-15T06:20:55.418Z,17.20
2023-04-15T06:24:16.790Z,17.42
2023-04-15T06:27:38.687Z,17.40
2023-04-15T06:31:02.867Z,17.02
2023-04-15T06:34:24.275Z,17.55
2023-04-15T06:37:45.638Z,18.23
2023-04-15T06:41:07.345Z,16.27
2023-04-15T06:44:28.914Z,15.95
2023-04-15T06:47:51.777Z,16.92
2023-04-15T06:51:13.765Z,17.23
2023-04-15T06:54:35.510Z,16.92
2023-04-15T06:57:57.321Z,20.92
2023-04-15T07:01:19.330Z,16.95
2023-04-15T07:04:42.574Z,14.70
2023-04-15T07:08:04.076Z,15.27
2023-04-15T07:11:27.128Z,15.88
2023-04-15T07:14:49.510Z,16.50
2023-04-15T07:18:11.249Z,15.02
2023-04-15T07:21:34.119Z,17.23
2023-04-15T07:24:56.097Z,15.45
2023-04-15T07:28:17.634Z,17.83
2023-04-15T07:31:39.138Z,15.82
2023-04-15T07:35:01.508Z,13.73
2023-04-15T07:38:25.150Z,14.45
2023-04-15T07:41:46.728Z,15.52
2023-04-15T07:45:09.401Z,17.90
2023-04-15T07:48:31.486Z,15.27
2023-04-15T07:51:53.317Z,17.00
2023-04-15T07:55:19.407Z,20.00
2023-04-15T07:58:41.475Z,17.80
2023-04-15T08:02:03.482Z,17.15
2023-04-15T08:05:25.785Z,15.68
2023-04-15T08:08:47.634Z,16.95
2023-04-15T08:12:13.396Z,19.15
2023-04-15T08:15:35.382Z,15.27
2023-04-15T08:18:58.292Z,21.15
2023-04-15T08:22:21.333Z,18.90
2023-04-15T08:25:44.368Z,16.95
2023-04-15T08:29:08.093Z,17.02
2023-04-15T08:32:29.659Z,16.80
2023-04-15T08:35:51.642Z,18.48
2023-04-15T08:39:12.898Z,14.82
2023-04-15T08:42:43.029Z,17.75
2023-04-15T08:46:08.490Z,16.85
2023-04-15T08:49:31.110Z,16.20
2023-04-15T08:52:55.856Z,15.73
2023-04-15T08:56:17.923Z,17.90
2023-04-15T08:59:40.760Z,18.30
2023-04-15T09:03:05.843Z,18.10
2023-04-15T09:06:28.061Z,16.52
2023-04-15T09:09:51.666Z,15.10
2023-04-15T09:13:13.620Z,20.38
2023-04-15T09:16:59.563Z,15.93
2023-04-15T09:20:23.083Z,15.70
2023-04-15T09:23:56.356Z,16.10
2023-04-15T09:27:18.328Z,19.98
2023-04-15T09:30:40.095Z,17.17
2023-04-15T09:34:02.907Z,16.63
2023-04-15T09:37:37.398Z,17.17
2023-04-15T09:40:59.961Z,15.27
2023-04-15T09:44:24.695Z,16.33
2023-04-15T09:47:46.887Z,16.77
2023-04-15T09:51:08.839Z,15.60
2023-04-15T09:54:39.599Z,15.13
2023-04-15T09:58:01.343Z,14.63
2023-04-15T10:01:23.291Z,15.10
2023-04-15T10:04:47.896Z,14.93
2023-04-15T10:08:10.880Z,15.30
2023-04-15T10:11:35.332Z,16.10
2023-04-15T10:15:00.678Z,15.93
2023-04-15T10:18:24.816Z,15.75
2023-04-15T10:21:47.065Z,16.35
2023-04-15T10:25:09.929Z,15.98
2023-04-15T10:28:33.500Z,17.40
2023-04-15T10:31:56.894Z,13.63
2023-04-15T10:35:19.663Z,15.70
2023-04-15T10:38:43.232Z,16.23
2023-04-15T10:42:09.194Z,17.48
2023-04-15T10:45:36.859Z,19.08
2023-04-15T10:48:58.630Z,16.02
2023-04-15T10:52:28.642Z,14.63
2023-04-15T10:55:50.319Z,17.08
2023-04-15T10:59:12.976Z,17.10
2023-04-15T11:02:47.631Z,14.68
2023-04-15T11:06:10.604Z,16.25
2023-04-15T11:09:33.793Z,15.80
2023-04-15T11:12:59.301Z,20.45
2023-04-15T11:16:21.564Z,15.90
2023-04-15T11:19:45.052Z,20.33
2023-04-15T11:23:14.419Z,17.95
2023-04-15T11:26:37.658Z,19.35
2023-04-15T11:29:59.314Z,17.95
2023-04-15T11:33:21.000Z,17.70
2023-04-15T11:36:45.160Z,18.02
2023-04-15T11:40:09.048Z,20.42
2023-04-15T11:43:35.355Z,21.27
2023-04-15T11:46:57.567Z,20.42
2023-04-15T11:50:20.829Z,18.42
2023-04-15T11:53:46.096Z,17.80
2023-04-15T11:57:08.803Z,19.63
2023-04-15T12:00:30.706Z,18.83
2023-04-15T12:03:52.467Z,15.77
2023-04-15T12:07:13.873Z,20.17
2023-04-15T12:10:37.274Z,17.65
2023-04-15T12:14:01.053Z,16.33
2023-04-15T12:17:24.805Z,16.88
2023-04-15T12:20:47.462Z,18.17
2023-04-15T12:24:11.390Z,14.40
2023-04-15T12:27:36.283Z,13.65
2023-04-15T12:30:57.913Z,14.18
2023-04-15T12:34:20.177Z,15.05
2023-04-15T12:37:41.830Z,15.43
2023-04-15T12:41:03.877Z,13.20
2023-04-15T12:44:28.060Z,13.85
2023-04-15T12:47:49.624Z,14.90
2023-04-15T12:51:10.958Z,15.23
2023-04-15T12:54:33.525Z,12.75
2023-04-15T12:57:55.389Z,14.18
2023-04-15T13:01:18.582Z,14.52
2023-04-15T13:04:40.277Z,13.18
2023-04-15T13:08:02.467Z,12.50
2023-04-15T13:11:24.433Z,14.02
2023-04-15T13:14:46.543Z,12.45
2023-04-15T13:18:09.723Z,11.90
2023-04-15T13:21:35.130Z,11.48
2023-04-15T13:24:57.662Z,11.50
2023-04-15T13:28:19.600Z,11.40
2023-04-15T13:31:41.445Z,10.57
2023-04-15T13:35:05.265Z,9.77
2023-04-15T13:38:26.778Z,10.18
2023-04-15T13:41:48.518Z,11.07
2023-04-15T13:45:11.906Z,10.65
2023-04-15T13:48:33.474Z,10.57
2023-04-15T13:51:56.602Z,11.00
2023-04-15T13:55:21.122Z,11.18
2023-04-15T13:58:43.888Z,9.93
2023-04-15T14:02:05.372Z,12.43
2023-04-15T14:05:27.074Z,12.38
2023-04-15T14:08:50.970Z,10.15
2023-04-15T14:12:12.507Z,13.25
2023-04-15T14:15:34.274Z,9.93
2023-04-15T14:18:56.184Z,10.38
2023-04-15T14:22:18.955Z,11.95
2023-04-15T14:25:41.920Z,10.60
2023-04-15T14:29:04.179Z,8.57
2023-04-15T14:32:26.686Z,11.45
2023-04-15T14:35:48.422Z,10.98
2023-04-15T14:39:10.555Z,9.35
2023-04-15T14:42:33.362Z,10.00
2023-04-15T14:45:55.437Z,11.48
2023-04-15T14:49:17.056Z,11.18
2023-04-15T14:52:39.724Z,10.30
2023-04-15T14:56:01.475Z,9.93
2023-04-15T14:59:25.112Z,8.85
2023-04-15T15:02:47.523Z,9.90
2023-04-15T15:06:09.499Z,8.32
2023-04-15T15:09:31.762Z,9.00
2023-04-15T15:12:54.396Z,9.13
2023-04-15T15:16:17.157Z,9.77
2023-04-15T15:19:39.183Z,8.48
2023-04-15T15:23:02.122Z,6.60
2023-04-15T15:26:24.221Z,7.63
2023-04-15T15:29:46.276Z,7.82
2023-04-15T15:33:09.366Z,7.60
2023-04-15T15:36:31.497Z,7.93
2023-04-15T15:39:53.835Z,8.55
2023-04-15T15:43:15.778Z,8.20
2023-04-15T15:46:40.176Z,7.97
2023-04-15T15:50:06.024Z,8.85
2023-04-15T15:53:28.343Z,9.32
2023-04-15T15:56:50.769Z,8.70
2023-04-15T16:00:13.846Z,8.90
2023-04-15T16:03:35.509Z,9.70
2023-04-15T16:06:58.929Z,9.20
2023-04-15T16:10:20.789Z,10.95
2023-04-15T16:13:42.637Z,10.57
2023-04-15T16:17:04.656Z,12.93
2023-04-15T16:20:26.576Z,11.25
2023-04-15T16:23:49.505Z,11.60
2023-04-15T16:27:16.038Z,14.70
2023-04-15T16:30:39.262Z,21.13
2023-04-15T16:34:00.490Z,15.60
2023-04-15T16:37:22.504Z,14.40
2023-04-15T16:40:46.084Z,15.27
2023-04-15T16:44:09.071Z,15.77
2023-04-15T16:47:31.025Z,16.83
2023-04-15T16:50:53.027Z,15.35
2023-04-15T16:54:14.725Z,14.27
2023-04-15T16:58:00.970Z,16.75
2023-04-15T17:01:19.639Z,15.82
2023-04-15T17:04:41.716Z,14.52
2023-04-15T17:08:03.881Z,17.17
2023-04-15T17:11:26.128Z,15.95
2023-04-15T17:14:49.296Z,15.98
2023-04-15T17:18:12.131Z,17.42
2023-04-15T17:21:33.934Z,15.35
2023-04-15T17:24:55.301Z,16.38
2023-04-15T17:28:17.239Z,17.90
2023-04-15T17:31:40.723Z,17.10
2023-04-15T17:35:02.868Z,16.63
2023-04-15T17:38:24.729Z,17.25
2023-04-15T17:41:46.606Z,16.00
2023-04-15T17:45:09.222Z,17.48
2023-04-15T17:48:32.294Z,17.40
2023-04-15T17:51:55.493Z,17.27
2023-04-15T17:55:17.081Z,17.50
2023-04-15T17:58:39.942Z,16.88
2023-04-15T18:02:01.401Z,19.13
2023-04-15T18:05:24.751Z,19.02
2023-04-15T18:08:46.458Z,17.75
2023-04-15T18:12:09.285Z,15.15
2023-04-15T18:15:31.999Z,19.40
2023-04-15T18:18:53.729Z,16.92
2023-04-15T18:22:16.871Z,16.88
2023-04-15T18:25:38.980Z,16.80
2023-04-15T18:29:00.282Z,17.38
2023-04-15T18:32:21.784Z,15.65
2023-04-15T18:35:43.826Z,17.73
2023-04-15T18:39:06.957Z,16.30
2023-04-15T18:42:29.268Z,15.43
2023-04-15T18:45:52.383Z,16.08
2023-04-15T18:49:14.249Z,15.05
2023-04-15T18:52:36.126Z,13.90
2023-04-15T18:56:01.713Z,17.27
2023-04-15T18:59:29.729Z,15.35
2023-04-15T19:02:52.618Z,15.75
2023-04-15T19:06:14.866Z,17.50
2023-04-15T19:09:36.877Z,16.90
2023-04-15T19:12:59.970Z,14.85
2023-04-15T19:16:21.802Z,15.40
2023-04-15T19:19:43.704Z,16.83
2023-04-15T19:23:05.589Z,17.73
2023-04-15T19:26:27.641Z,16.67
2023-04-15T19:29:50.643Z,15.55
2023-04-15T19:33:13.454Z,15.38
2023-04-15T19:36:34.814Z,16.58
2023-04-15T19:39:56.879Z,16.67
2023-04-15T19:43:18.299Z,22.50
2023-04-15T19:46:44.104Z,18.00
2023-04-15T19:50:07.869Z,16.25
2023-04-15T19:53:30.792Z,17.20
2023-04-15T19:56:52.578Z,16.92
2023-04-15T20:00:14.933Z,17.40
2023-04-15T20:03:37.985Z,16.10
2023-04-15T20:06:59.665Z,16.85
2023-04-15T20:10:21.602Z,16.55
2023-04-15T20:13:43.255Z,19.27
2023-04-15T20:17:04.595Z,18.70
2023-04-15T20:20:28.225Z,17.50
2023-04-15T20:23:49.831Z,18.95
2023-04-15T20:27:11.620Z,20.27
2023-04-15T20:30:33.540Z,20.50
2023-04-15T20:33:55.361Z,18.60
2023-04-15T20:37:19.262Z,19.98
2023-04-15T20:40:41.917Z,20.90
2023-04-15T20:44:03.568Z,22.70
2023-04-15T20:47:24.888Z,21.52
2023-04-15T20:50:46.989Z,19.77
2023-04-15T20:54:10.586Z,21.67
2023-04-15T20:57:32.514Z,19.50
2023-04-15T21:00:55.395Z,20.05
2023-04-15T21:04:17.366Z,20.15
2023-04-15T21:07:38.839Z,19.85
2023-04-15T21:11:01.757Z,21.77
2023-04-15T21:14:23.208Z,22.77
2023-04-15T21:17:45.052Z,19.58
2023-04-15T21:21:06.791Z,21.15
2023-04-15T21:24:29.094Z,19.75
2023-04-15T21:27:52.065Z,23.40
2023-04-15T21:31:13.498Z,24.27
2023-04-15T21:34:35.552Z,20.17
2023-04-15T21:37:57.222Z,23.45
2023-04-15T21:41:18.611Z,20.95
2023-04-15T21:44:41.777Z,22.40
2023-04-15T21:48:07.844Z,24.27
2023-04-15T21:51:31.479Z,23.83
2023-04-15T21:54:52.986Z,23.00
2023-04-15T21:58:14.809Z,21.70
2023-04-15T22:01:38.079Z,22.58
2023-04-15T22:04:59.919Z,23.45
2023-04-15T22:08:21.978Z,21.85
2023-04-15T22:11:44.034Z,22.20
2023-04-15T22:15:06.910Z,20.83
2023-04-15T22:18:30.395Z,22.02
2023-04-15T22:21:52.255Z,23.27
2023-04-15T22:25:13.874Z,21.33
2023-04-15T22:28:35.606Z,22.48
2023-04-15T22:31:57.254Z,22.02
2023-04-15T22:35:20.184Z,23.73
2023-04-15T22:38:41.970Z,22.90
2023-04-15T22:42:03.841Z,23.55
2023-04-15T22:45:25.822Z,20.58
2023-04-15T22:48:47.461Z,23.92
2023-04-15T22:52:12.425Z,23.60
2023-04-15T22:55:45.901Z,23.85
2023-04-15T22:59:07.728Z,23.63
2023-04-15T23:02:30.190Z,25.55
2023-04-15T23:05:52.054Z,23.05
2023-04-15T23:09:15.537Z,22.52
2023-04-15T23:12:36.983Z,21.45
2023-04-15T23:15:58.812Z,22.42
2023-04-15T23:19:20.598Z,20.83
2023-04-15T23:22:43.235Z,21.42
2023-04-15T23:26:08.731Z,21.30
2023-04-15T23:29:30.406Z,21.20
2023-04-15T23:32:52.394Z,24.55
2023-04-15T23:36:13.865Z,27.75
2023-04-15T23:39:35.235Z,23.45
2023-04-15T23:42:57.952Z,24.27
2023-04-15T23:46:19.513Z,22.92
2023-04-15T23:49:41.729Z,22.95
2023-04-15T23:53:03.575Z,24.75
2023-04-15T23:56:24.911Z,22.73
2023-04-15T23:59:48.331Z,21.55
